createdAt,value
2022-07-25T00:00:50.706Z,68.32
2022-07-25T00:01:50.803Z,68.48
2022-07-25T00:02:50.752Z,68.48
2022-07-25T00:03:50.817Z,68.51
2022-07-25T00:04:50.854Z,69.06
2022-07-25T00:05:50.816Z,69.44
2022-07-25T00:06:50.835Z,69.82
2022-07-25T00:07:50.858Z,69.82
2022-07-25T00:08:50.874Z,69.92
2022-07-25T00:09:50.900Z,69.34
2022-07-25T00:10:50.917Z,68.86
2022-07-25T00:11:50.953Z,69.06
2022-07-25T00:12:50.987Z,68.96
2022-07-25T00:13:51.002Z,68.96
2022-07-25T00:14:51.004Z,68.38
2022-07-25T00:15:51.096Z,68.67
2022-07-25T00:16:51.070Z,68.29
2022-07-25T00:17:51.062Z,68.67
2022-07-25T00:18:51.085Z,68.67
2022-07-25T00:19:51.108Z,68.67
2022-07-25T00:20:51.123Z,68.57
2022-07-25T00:21:51.144Z,68.57
2022-07-25T00:22:51.170Z,68.57
2022-07-25T00:23:51.183Z,68.57
2022-07-25T00:24:51.204Z,69.06
2022-07-25T00:25:51.235Z,69.06
2022-07-25T00:26:51.251Z,68.86
2022-07-25T00:27:51.267Z,68.67
2022-07-25T00:28:51.290Z,68.67
2022-07-25T00:29:51.312Z,68.38
2022-07-25T00:30:51.367Z,68.67
2022-07-25T00:31:51.442Z,68.19
2022-07-25T00:32:51.374Z,68.19
2022-07-25T00:33:51.390Z,68.48
2022-07-25T00:34:51.412Z,68.38
2022-07-25T00:35:51.432Z,68.48
2022-07-25T00:36:51.454Z,68.38
2022-07-25T00:37:51.474Z,68.19
2022-07-25T00:38:51.495Z,68.29
2022-07-25T00:39:51.529Z,68.48
2022-07-25T00:40:54.480Z,68.29
2022-07-25T00:41:51.558Z,68.67
2022-07-25T00:42:51.580Z,68.67
2022-07-25T00:43:51.599Z,69.15
2022-07-25T00:44:51.617Z,68.96
2022-07-25T00:45:51.650Z,69.34
2022-07-25T00:46:51.798Z,69.06
2022-07-25T00:47:51.682Z,69.34
2022-07-25T00:48:51.847Z,69.24
2022-07-25T00:49:51.774Z,69.63
2022-07-25T00:50:51.741Z,69.53
2022-07-25T00:51:51.763Z,69.44
2022-07-25T00:52:51.818Z,69.82
2022-07-25T00:53:51.805Z,69.92
2022-07-25T00:54:51.823Z,70.59
2022-07-25T00:55:51.866Z,70.11
2022-07-25T00:56:51.860Z,70.01
2022-07-25T00:57:51.932Z,69.92
2022-07-25T00:58:51.921Z,70.50
2022-07-25T00:59:51.929Z,70.40
2022-07-25T01:00:51.945Z,70.40
2022-07-25T01:01:52.015Z,70.30
2022-07-25T01:02:52.061Z,70.40
2022-07-25T01:03:52.014Z,70.30
2022-07-25T01:04:52.029Z,70.30
2022-07-25T01:05:53.870Z,70.59
2022-07-25T01:06:52.070Z,70.27
2022-07-25T01:07:52.096Z,70.56
2022-07-25T01:08:52.113Z,70.56
2022-07-25T01:09:52.135Z,70.56
2022-07-25T01:10:52.161Z,70.59
2022-07-25T01:11:52.277Z,70.37
2022-07-25T01:12:52.195Z,70.56
2022-07-25T01:13:52.213Z,70.46
2022-07-25T01:14:52.236Z,70.84
2022-07-25T01:15:52.349Z,70.75
2022-07-25T01:16:52.276Z,70.84
2022-07-25T01:17:52.298Z,71.33
2022-07-25T01:18:52.314Z,71.14
2022-07-25T01:19:52.338Z,71.33
2022-07-25T01:20:52.358Z,71.61
2022-07-25T01:21:52.374Z,71.04
2022-07-25T01:22:52.404Z,71.42
2022-07-25T01:23:52.418Z,71.04
2022-07-25T01:24:52.437Z,71.23
2022-07-25T01:25:52.459Z,71.33
2022-07-25T01:26:52.580Z,71.23
2022-07-25T01:27:55.587Z,70.84
2022-07-25T01:28:52.518Z,70.84
2022-07-25T01:29:52.542Z,71.04
2022-07-25T01:30:52.631Z,71.42
2022-07-25T01:31:52.578Z,71.33
2022-07-25T01:32:52.609Z,71.91
2022-07-25T01:33:52.619Z,72.00
2022-07-25T01:34:52.637Z,72.67
2022-07-25T01:35:52.655Z,72.58
2022-07-25T01:36:52.678Z,72.48
2022-07-25T01:37:52.706Z,72.48
2022-07-25T01:38:54.257Z,72.09
2022-07-25T01:39:52.738Z,71.81
2022-07-25T01:40:52.761Z,71.52
2022-07-25T01:41:52.793Z,71.42
2022-07-25T01:42:52.804Z,71.71
2022-07-25T01:43:52.822Z,71.81
2022-07-25T01:44:52.838Z,71.91
2022-07-25T01:45:52.887Z,71.23
2022-07-25T01:46:52.883Z,71.52
2022-07-25T01:47:52.901Z,71.14
2022-07-25T01:48:53.039Z,71.04
2022-07-25T01:49:52.942Z,71.71
2022-07-25T01:50:52.961Z,71.23
2022-07-25T01:51:52.983Z,71.48
2022-07-25T01:52:53.002Z,71.23
2022-07-25T01:53:53.023Z,71.42
2022-07-25T01:54:53.040Z,71.61
2022-07-25T01:55:53.058Z,71.58
2022-07-25T01:56:53.085Z,71.19
2022-07-25T01:57:53.103Z,71.39
2022-07-25T01:58:53.116Z,71.58
2022-07-25T01:59:53.145Z,71.77
2022-07-25T02:00:53.158Z,72.16
2022-07-25T02:01:53.226Z,71.67
2022-07-25T02:02:53.200Z,71.29
2022-07-25T02:03:53.231Z,71.29
2022-07-25T02:04:53.282Z,71.29
2022-07-25T02:05:53.262Z,71.67
2022-07-25T02:06:53.295Z,71.77
2022-07-25T02:07:53.298Z,71.19
2022-07-25T02:08:53.320Z,71.29
2022-07-25T02:09:56.738Z,71.58
2022-07-25T02:10:53.359Z,71.33
2022-07-25T02:11:53.379Z,71.14
2022-07-25T02:12:53.399Z,70.94
2022-07-25T02:13:53.520Z,70.75
2022-07-25T02:14:53.443Z,70.84
2022-07-25T02:15:53.457Z,70.75
2022-07-25T02:16:53.520Z,71.04
2022-07-25T02:17:53.497Z,71.33
2022-07-25T02:18:53.522Z,70.84
2022-07-25T02:19:53.538Z,70.84
2022-07-25T02:20:53.558Z,71.04
2022-07-25T02:21:53.583Z,71.04
2022-07-25T02:22:53.597Z,71.04
2022-07-25T02:23:53.625Z,71.23
2022-07-25T02:24:53.648Z,71.14
2022-07-25T02:25:53.661Z,70.90
2022-07-25T02:26:53.690Z,70.94
2022-07-25T02:27:53.705Z,70.75
2022-07-25T02:28:53.724Z,71.14
2022-07-25T02:29:53.739Z,71.14
2022-07-25T02:30:53.796Z,70.84
2022-07-25T02:31:53.785Z,71.42
2022-07-25T02:32:53.802Z,71.04
2022-07-25T02:33:53.818Z,70.84
2022-07-25T02:34:53.838Z,71.33
2022-07-25T02:35:53.861Z,71.23
2022-07-25T02:36:53.890Z,70.94
2022-07-25T02:37:53.898Z,70.84
2022-07-25T02:38:53.916Z,70.75
2022-07-25T02:39:53.939Z,70.94
2022-07-25T02:40:53.963Z,70.75
2022-07-25T02:41:53.974Z,70.84
2022-07-25T02:42:53.996Z,70.62
2022-07-25T02:43:54.020Z,70.65
2022-07-25T02:44:54.034Z,70.37
2022-07-25T02:45:54.110Z,70.37
2022-07-25T02:46:54.080Z,70.37
2022-07-25T02:47:54.098Z,70.46
2022-07-25T02:48:54.178Z,70.75
2022-07-25T02:49:54.138Z,70.46
2022-07-25T02:50:54.160Z,71.10
2022-07-25T02:51:54.187Z,71.29
2022-07-25T02:52:54.297Z,71.58
2022-07-25T02:53:57.892Z,71.29
2022-07-25T02:54:54.241Z,71.48
2022-07-25T02:55:54.263Z,71.48
2022-07-25T02:56:54.281Z,71.77
2022-07-25T02:57:54.302Z,71.52
2022-07-25T02:58:54.317Z,71.39
2022-07-25T02:59:54.350Z,71.48
2022-07-25T03:00:54.392Z,71.77
2022-07-25T03:01:54.472Z,71.48
2022-07-25T03:02:54.402Z,71.48
2022-07-25T03:03:54.501Z,71.29
2022-07-25T03:04:54.436Z,71.67
2022-07-25T03:05:54.458Z,71.87
2022-07-25T03:06:54.479Z,71.77
2022-07-25T03:07:54.493Z,71.77
2022-07-25T03:08:54.516Z,71.77
2022-07-25T03:09:54.538Z,71.29
2022-07-25T03:10:54.561Z,71.67
2022-07-25T03:11:54.588Z,71.77
2022-07-25T03:12:54.594Z,71.67
2022-07-25T03:13:54.615Z,71.67
2022-07-25T03:14:54.634Z,71.67
2022-07-25T03:15:54.654Z,71.77
2022-07-25T03:16:54.758Z,71.67
2022-07-25T03:17:54.795Z,71.87
2022-07-25T03:18:54.716Z,71.29
2022-07-25T03:19:54.736Z,71.77
2022-07-25T03:20:54.752Z,71.87
2022-07-25T03:21:54.776Z,71.58
2022-07-25T03:22:54.791Z,71.67
2022-07-25T03:23:54.814Z,71.58
2022-07-25T03:24:54.834Z,71.77
2022-07-25T03:25:54.852Z,71.87
2022-07-25T03:26:54.873Z,71.96
2022-07-25T03:27:54.900Z,71.87
2022-07-25T03:28:54.922Z,71.67
2022-07-25T03:29:54.935Z,71.87
2022-07-25T03:30:54.952Z,71.87
2022-07-25T03:31:55.055Z,71.87
2022-07-25T03:32:54.994Z,71.67
2022-07-25T03:33:55.026Z,71.77
2022-07-25T03:34:55.035Z,71.77
2022-07-25T03:35:55.048Z,71.58
2022-07-25T03:36:55.072Z,71.87
2022-07-25T03:37:55.090Z,71.67
2022-07-25T03:38:55.114Z,71.96
2022-07-25T03:39:55.136Z,71.29
2022-07-25T03:40:55.147Z,71.58
2022-07-25T03:41:55.209Z,71.67
2022-07-25T03:42:55.199Z,71.77
2022-07-25T03:43:55.204Z,71.96
2022-07-25T03:44:55.233Z,71.58
2022-07-25T03:45:55.361Z,71.96
2022-07-25T03:46:55.265Z,71.87
2022-07-25T03:47:55.295Z,71.87
2022-07-25T03:48:55.458Z,71.77
2022-07-25T03:49:55.332Z,71.67
2022-07-25T03:50:55.345Z,71.87
2022-07-25T03:51:55.367Z,71.77
2022-07-25T03:52:55.389Z,71.87
2022-07-25T03:53:55.407Z,71.29
2022-07-25T03:54:55.424Z,71.77
2022-07-25T03:55:55.442Z,72.25
2022-07-25T03:56:55.467Z,72.34
2022-07-25T03:57:55.485Z,72.41
2022-07-25T03:58:55.501Z,72.44
2022-07-25T03:59:55.526Z,72.54
2022-07-25T04:00:55.619Z,72.54
2022-07-25T04:01:55.656Z,72.41
2022-07-25T04:02:55.583Z,72.06
2022-07-25T04:03:55.601Z,72.41
2022-07-25T04:04:55.619Z,72.34
2022-07-25T04:05:55.637Z,72.31
2022-07-25T04:06:55.659Z,72.16
2022-07-25T04:07:55.677Z,72.31
2022-07-25T04:08:55.698Z,71.77
2022-07-25T04:09:55.718Z,71.83
2022-07-25T04:10:55.740Z,71.93
2022-07-25T04:11:55.759Z,71.87
2022-07-25T04:12:55.776Z,71.83
2022-07-25T04:13:55.799Z,72.02
2022-07-25T04:14:55.812Z,72.02
2022-07-25T04:15:55.842Z,72.16
2022-07-25T04:16:55.930Z,71.96
2022-07-25T04:17:55.876Z,71.93
2022-07-25T04:18:56.153Z,72.31
2022-07-25T04:19:55.918Z,72.22
2022-07-25T04:20:55.934Z,72.41
2022-07-25T04:21:55.952Z,72.50
2022-07-25T04:22:56.073Z,72.44
2022-07-25T04:23:55.993Z,72.16
2022-07-25T04:24:56.012Z,72.34
2022-07-25T04:25:56.030Z,72.50
2022-07-25T04:26:56.047Z,72.50
2022-07-25T04:27:56.073Z,72.31
2022-07-25T04:28:56.089Z,72.50
2022-07-25T04:29:56.112Z,72.99
2022-07-25T04:30:56.124Z,72.89
2022-07-25T04:31:56.220Z,73.37
2022-07-25T04:32:56.164Z,73.18
2022-07-25T04:33:56.181Z,73.37
2022-07-25T04:34:56.205Z,73.69
2022-07-25T04:35:56.232Z,73.85
2022-07-25T04:36:56.240Z,73.94
2022-07-25T04:37:56.268Z,74.04
2022-07-25T04:38:56.281Z,74.33
2022-07-25T04:39:56.299Z,74.43
2022-07-25T04:40:56.321Z,74.43
2022-07-25T04:41:56.341Z,74.71
2022-07-25T04:42:56.357Z,75.00
2022-07-25T04:43:56.376Z,74.81
2022-07-25T04:44:56.401Z,75.00
2022-07-25T04:45:56.510Z,74.71
2022-07-25T04:46:56.439Z,74.81
2022-07-25T04:47:56.456Z,74.62
2022-07-25T04:48:56.527Z,75.10
2022-07-25T04:49:56.496Z,74.90
2022-07-25T04:50:56.517Z,74.52
2022-07-25T04:51:56.532Z,74.13
2022-07-25T04:52:56.554Z,73.94
2022-07-25T04:53:56.578Z,73.85
2022-07-25T04:54:56.589Z,73.94
2022-07-25T04:55:56.612Z,73.94
2022-07-25T04:56:56.628Z,74.62
2022-07-25T04:57:56.646Z,74.81
2022-07-25T04:58:58.592Z,74.52
2022-07-25T04:59:56.691Z,74.04
2022-07-25T05:00:56.757Z,74.04
2022-07-25T05:01:56.792Z,73.94
2022-07-25T05:02:56.749Z,73.98
2022-07-25T05:03:56.770Z,74.37
2022-07-25T05:04:56.783Z,74.43
2022-07-25T05:05:56.800Z,74.52
2022-07-25T05:06:56.824Z,74.81
2022-07-25T05:07:56.840Z,74.81
2022-07-25T05:08:56.862Z,75.00
2022-07-25T05:09:56.882Z,75.10
2022-07-25T05:10:56.900Z,74.90
2022-07-25T05:11:56.924Z,75.10
2022-07-25T05:12:56.939Z,75.00
2022-07-25T05:13:56.957Z,75.10
2022-07-25T05:14:56.975Z,75.20
2022-07-25T05:15:57.052Z,75.00
2022-07-25T05:16:57.101Z,75.20
2022-07-25T05:17:57.038Z,75.67
2022-07-25T05:18:57.057Z,76.06
2022-07-25T05:19:57.080Z,75.87
2022-07-25T05:20:57.500Z,75.57
2022-07-25T05:21:57.111Z,75.77
2022-07-25T05:22:57.133Z,75.67
2022-07-25T05:23:57.154Z,76.06
2022-07-25T05:24:57.181Z,75.57
2022-07-25T05:25:57.197Z,75.77
2022-07-25T05:26:57.211Z,75.90
2022-07-25T05:27:57.232Z,76.06
2022-07-25T05:28:57.256Z,75.96
2022-07-25T05:29:57.274Z,75.87
2022-07-25T05:30:57.293Z,75.96
2022-07-25T05:31:57.384Z,75.96
2022-07-25T05:32:57.336Z,75.87
2022-07-25T05:33:57.427Z,76.44
2022-07-25T05:34:57.365Z,76.15
2022-07-25T05:35:57.389Z,75.77
2022-07-25T05:36:57.481Z,75.77
2022-07-25T05:37:57.481Z,76.06
2022-07-25T05:38:57.517Z,75.96
2022-07-25T05:39:57.543Z,76.25
2022-07-25T05:40:57.539Z,76.06
2022-07-25T05:41:57.507Z,76.34
2022-07-25T05:43:02.745Z,76.15
2022-07-25T05:43:57.544Z,76.34
2022-07-25T05:44:57.561Z,76.34
2022-07-25T05:45:57.579Z,76.92
2022-07-25T05:46:57.696Z,76.54
2022-07-25T05:47:57.621Z,76.15
2022-07-25T05:48:57.778Z,76.34
2022-07-25T05:49:57.655Z,75.96
2022-07-25T05:50:57.690Z,75.96
2022-07-25T05:51:57.701Z,76.25
2022-07-25T05:52:57.715Z,75.77
2022-07-25T05:53:57.740Z,75.90
2022-07-25T05:54:57.757Z,75.90
2022-07-25T05:55:57.772Z,75.52
2022-07-25T05:56:57.788Z,75.04
2022-07-25T05:57:57.810Z,76.09
2022-07-25T05:58:57.832Z,75.62
2022-07-25T05:59:57.855Z,76.09
2022-07-25T06:00:57.868Z,75.62
2022-07-25T06:01:58.038Z,75.23
2022-07-25T06:02:58.075Z,75.13
2022-07-25T06:03:57.925Z,75.23
2022-07-25T06:04:57.947Z,74.94
2022-07-25T06:05:57.978Z,74.98
2022-07-25T06:06:57.986Z,76.32
2022-07-25T06:07:58.004Z,76.00
2022-07-25T06:08:58.025Z,75.46
2022-07-25T06:09:58.050Z,74.69
2022-07-25T06:10:58.060Z,75.07
2022-07-25T06:12:00.833Z,75.27
2022-07-25T06:12:58.105Z,74.88
2022-07-25T06:13:58.134Z,74.98
2022-07-25T06:14:58.143Z,74.88
2022-07-25T06:15:58.213Z,75.11
2022-07-25T06:16:58.179Z,74.79
2022-07-25T06:17:58.206Z,72.77
2022-07-25T06:18:58.217Z,72.48
2022-07-25T06:19:58.242Z,71.65
2022-07-25T06:20:58.281Z,72.52
2022-07-25T06:21:58.279Z,73.19
2022-07-25T06:22:58.299Z,73.00
2022-07-25T06:23:58.322Z,73.00
2022-07-25T06:24:58.342Z,72.61
2022-07-25T06:25:58.370Z,72.80
2022-07-25T06:26:58.380Z,72.52
2022-07-25T06:27:58.395Z,73.09
2022-07-25T06:28:58.413Z,72.42
2022-07-25T06:29:58.447Z,72.71
2022-07-25T06:30:58.556Z,71.65
2022-07-25T06:31:58.567Z,71.75
2022-07-25T06:32:58.504Z,71.94
2022-07-25T06:33:58.513Z,72.13
2022-07-25T06:34:58.705Z,72.03
2022-07-25T06:35:58.554Z,72.32
2022-07-25T06:36:58.590Z,72.71
2022-07-25T06:37:58.597Z,72.42
2022-07-25T06:38:58.615Z,72.42
2022-07-25T06:39:58.633Z,72.45
2022-07-25T06:40:58.654Z,72.07
2022-07-25T06:41:58.672Z,71.49
2022-07-25T06:42:58.793Z,71.01
2022-07-25T06:43:58.759Z,70.82
2022-07-25T06:44:58.734Z,70.82
2022-07-25T06:45:58.753Z,70.72
2022-07-25T06:46:58.884Z,71.53
2022-07-25T06:47:58.826Z,70.47
2022-07-25T06:48:58.898Z,69.22
2022-07-25T06:49:58.842Z,69.41
2022-07-25T06:50:58.854Z,69.12
2022-07-25T06:51:58.874Z,68.93
2022-07-25T06:52:58.899Z,69.64
2022-07-25T06:53:58.913Z,69.64
2022-07-25T06:54:58.938Z,69.22
2022-07-25T06:55:58.954Z,69.64
2022-07-25T06:56:58.985Z,69.15
2022-07-25T06:57:58.995Z,68.29
2022-07-25T06:58:59.072Z,69.06
2022-07-25T06:59:59.069Z,67.97
2022-07-25T07:00:59.123Z,67.19
2022-07-25T07:01:59.084Z,67.71
2022-07-25T07:02:59.166Z,69.35
2022-07-25T07:03:59.121Z,68.77
2022-07-25T07:04:59.134Z,68.29
2022-07-25T07:05:59.157Z,67.13
2022-07-25T07:06:59.183Z,66.27
2022-07-25T07:07:59.197Z,65.20
2022-07-25T07:08:59.217Z,64.43
2022-07-25T07:09:59.235Z,64.43
2022-07-25T07:10:59.257Z,65.78
2022-07-25T07:11:59.283Z,65.11
2022-07-25T07:12:59.293Z,66.78
2022-07-25T07:13:59.322Z,67.46
2022-07-25T07:14:59.339Z,66.78
2022-07-25T07:15:59.460Z,65.24
2022-07-25T07:16:59.381Z,63.41
2022-07-25T07:17:59.402Z,64.18
2022-07-25T07:18:59.416Z,64.02
2022-07-25T07:19:59.443Z,64.40
2022-07-25T07:20:59.459Z,65.27
2022-07-25T07:21:59.479Z,66.46
2022-07-25T07:22:59.502Z,64.50
2022-07-25T07:23:59.519Z,64.92
2022-07-25T07:24:59.552Z,64.59
2022-07-25T07:25:59.565Z,63.85
2022-07-25T07:26:59.589Z,63.37
2022-07-25T07:27:59.673Z,63.95
2022-07-25T07:28:59.625Z,64.53
2022-07-25T07:29:59.746Z,64.53
2022-07-25T07:31:15.648Z,65.11
2022-07-25T07:31:59.735Z,65.30
2022-07-25T07:32:59.708Z,65.88
2022-07-25T07:33:59.730Z,64.92
2022-07-25T07:34:59.747Z,64.92
2022-07-25T07:35:59.770Z,64.92
2022-07-25T07:36:59.787Z,65.11
2022-07-25T07:37:59.806Z,63.67
2022-07-25T07:38:59.828Z,65.11
2022-07-25T07:39:59.850Z,64.15
2022-07-25T07:40:59.880Z,64.24
2022-07-25T07:41:59.901Z,64.15
2022-07-25T07:42:59.913Z,64.43
2022-07-25T07:44:00.035Z,63.89
2022-07-25T07:44:59.974Z,64.08
2022-07-25T07:46:00.059Z,63.89
2022-07-25T07:47:00.018Z,61.67
2022-07-25T07:48:00.023Z,62.63
2022-07-25T07:49:00.114Z,60.89
2022-07-25T07:50:00.079Z,60.03
2022-07-25T07:51:00.081Z,59.25
2022-07-25T07:52:00.107Z,58.87
2022-07-25T07:53:00.128Z,60.31
2022-07-25T07:54:00.145Z,62.15
2022-07-25T07:55:00.171Z,60.54
2022-07-25T07:56:00.183Z,59.38
2022-07-25T07:57:00.225Z,59.25
2022-07-25T07:58:00.236Z,58.00
2022-07-25T07:59:00.249Z,60.61
2022-07-25T08:00:00.274Z,61.31
2022-07-25T08:01:00.300Z,58.03
2022-07-25T08:02:00.417Z,58.10
2022-07-25T08:03:00.543Z,58.12
2022-07-25T08:04:00.356Z,57.64
2022-07-25T08:05:00.380Z,57.35
2022-07-25T08:06:00.403Z,59.48
2022-07-25T08:07:00.424Z,57.84
2022-07-25T08:08:00.442Z,57.54
2022-07-25T08:09:00.464Z,57.93
2022-07-25T08:10:00.488Z,58.61
2022-07-25T08:11:00.510Z,57.16
2022-07-25T08:12:00.528Z,56.58
2022-07-25T08:13:00.548Z,56.77
2022-07-25T08:14:00.574Z,57.84
2022-07-25T08:15:00.592Z,57.54
2022-07-25T08:16:00.670Z,57.35
2022-07-25T08:17:00.633Z,57.45
2022-07-25T08:18:00.659Z,57.29
2022-07-25T08:19:00.681Z,56.10
2022-07-25T08:20:20.604Z,56.48
2022-07-25T08:21:00.739Z,57.45
2022-07-25T08:22:00.797Z,57.54
2022-07-25T08:23:00.766Z,56.99
2022-07-25T08:24:00.788Z,57.77
2022-07-25T08:25:00.810Z,56.41
2022-07-25T08:26:00.832Z,56.03
2022-07-25T08:27:00.851Z,55.19
2022-07-25T08:28:00.895Z,55.47
2022-07-25T08:29:18.083Z,55.29
2022-07-25T08:30:00.919Z,55.79
2022-07-25T08:31:01.065Z,53.77
2022-07-25T08:32:00.968Z,53.86
2022-07-25T08:33:00.990Z,54.63
2022-07-25T08:34:01.005Z,54.19
2022-07-25T08:35:01.049Z,55.55
2022-07-25T08:36:01.056Z,56.32
2022-07-25T08:37:01.073Z,56.54
2022-07-25T08:38:01.094Z,54.80
2022-07-25T08:39:01.110Z,55.38
2022-07-25T08:40:01.137Z,55.47
2022-07-25T08:41:01.163Z,55.79
2022-07-25T08:42:01.192Z,55.21
2022-07-25T08:43:01.201Z,54.37
2022-07-25T08:44:01.224Z,53.77
2022-07-25T08:45:01.247Z,53.86
2022-07-25T08:46:01.356Z,54.73
2022-07-25T08:47:01.294Z,54.53
2022-07-25T08:48:01.308Z,55.34
2022-07-25T08:49:01.417Z,53.28
2022-07-25T08:50:04.446Z,53.86
2022-07-25T08:51:01.374Z,53.77
2022-07-25T08:52:01.503Z,53.55
2022-07-25T08:53:30.288Z,55.02
2022-07-25T08:54:01.458Z,55.31
2022-07-25T08:55:01.478Z,54.41
2022-07-25T08:56:05.311Z,54.22
2022-07-25T08:57:01.511Z,54.90
2022-07-25T08:58:01.543Z,54.41
2022-07-25T08:59:01.557Z,54.87
2022-07-25T09:00:01.582Z,55.45
2022-07-25T09:01:01.610Z,57.15
2022-07-25T09:02:01.661Z,53.96
2022-07-25T09:03:01.762Z,53.59
2022-07-25T09:04:01.671Z,53.50
2022-07-25T09:05:01.686Z,54.95
2022-07-25T09:06:01.712Z,54.47
2022-07-25T09:07:06.251Z,54.11
2022-07-25T09:08:01.752Z,53.04
2022-07-25T09:09:01.778Z,51.30
2022-07-25T09:10:01.815Z,51.68
2022-07-25T09:11:01.823Z,51.56
2022-07-25T09:12:01.854Z,52.66
2022-07-25T09:13:01.870Z,51.98
2022-07-25T09:14:01.898Z,53.07
2022-07-25T09:15:01.920Z,52.00
2022-07-25T09:16:01.981Z,51.72
2022-07-25T09:17:01.960Z,51.52
2022-07-25T09:18:01.981Z,51.81
2022-07-25T09:19:02.004Z,52.00
2022-07-25T09:20:02.031Z,53.09
2022-07-25T09:21:02.053Z,51.28
2022-07-25T09:22:02.076Z,51.25
2022-07-25T09:23:02.095Z,51.18
2022-07-25T09:24:02.119Z,50.60
2022-07-25T09:25:02.143Z,50.87
2022-07-25T09:26:02.168Z,51.25
2022-07-25T09:27:02.198Z,50.16
2022-07-25T09:28:02.210Z,51.32
2022-07-25T09:29:02.244Z,50.16
2022-07-25T09:30:02.262Z,51.32
2022-07-25T09:31:02.387Z,51.72
2022-07-25T09:32:02.311Z,51.32
2022-07-25T09:33:02.330Z,51.45
2022-07-25T09:34:02.355Z,51.47
2022-07-25T09:35:02.376Z,50.57
2022-07-25T09:36:02.398Z,51.45
2022-07-25T09:37:02.423Z,50.65
2022-07-25T09:38:02.449Z,52.22
2022-07-25T09:39:02.572Z,51.54
2022-07-25T09:40:02.514Z,51.09
2022-07-25T09:41:02.529Z,50.41
2022-07-25T09:42:02.542Z,50.34
2022-07-25T09:43:02.569Z,49.63
2022-07-25T09:44:02.589Z,49.75
2022-07-25T09:45:02.612Z,49.29
2022-07-25T09:46:02.670Z,49.29
2022-07-25T09:47:02.655Z,49.29
2022-07-25T09:48:02.685Z,48.54
2022-07-25T09:49:02.749Z,49.00
2022-07-25T09:50:02.730Z,49.17
2022-07-25T09:51:02.758Z,48.61
2022-07-25T09:52:02.785Z,47.74
2022-07-25T09:53:02.841Z,46.96
2022-07-25T09:54:03.105Z,48.00
2022-07-25T09:55:02.950Z,48.20
2022-07-25T09:56:02.879Z,48.64
2022-07-25T09:57:02.899Z,47.69
2022-07-25T09:58:02.928Z,46.11
2022-07-25T09:59:02.969Z,46.77
2022-07-25T10:00:02.975Z,46.58
2022-07-25T10:01:03.126Z,46.36
2022-07-25T10:02:03.138Z,46.55
2022-07-25T10:03:03.198Z,46.26
2022-07-25T10:04:03.329Z,46.75
2022-07-25T10:05:03.146Z,47.62
2022-07-25T10:06:03.172Z,46.94
2022-07-25T10:07:03.197Z,47.93
2022-07-25T10:08:03.227Z,47.47
2022-07-25T10:09:03.257Z,45.70
2022-07-25T10:10:03.232Z,46.67
2022-07-25T10:11:03.257Z,45.70
2022-07-25T10:12:03.345Z,45.14
2022-07-25T10:13:09.442Z,45.17
2022-07-25T10:14:03.469Z,44.56
2022-07-25T10:15:03.378Z,45.02
2022-07-25T10:16:03.429Z,44.92
2022-07-25T10:17:03.471Z,45.29
2022-07-25T10:18:03.493Z,45.61
2022-07-25T10:19:03.519Z,45.58
2022-07-25T10:20:03.552Z,45.51
2022-07-25T10:21:17.840Z,45.10
2022-07-25T10:22:03.565Z,45.29
2022-07-25T10:23:03.534Z,45.48
2022-07-25T10:24:04.300Z,45.58
2022-07-25T10:25:03.618Z,45.29
2022-07-25T10:26:03.685Z,45.54
2022-07-25T10:27:03.642Z,46.84
2022-07-25T10:28:03.767Z,45.72
2022-07-25T10:29:04.695Z,45.02
2022-07-25T10:30:03.787Z,44.32
2022-07-25T10:31:03.817Z,45.72
2022-07-25T10:32:03.756Z,44.37
2022-07-25T10:33:03.778Z,43.41
2022-07-25T10:34:04.231Z,43.02
2022-07-25T10:35:03.830Z,42.91
2022-07-25T10:36:03.859Z,44.48
2022-07-25T10:37:03.878Z,43.02
2022-07-25T10:38:03.905Z,43.22
2022-07-25T10:39:03.925Z,42.74
2022-07-25T10:40:03.956Z,41.64
2022-07-25T10:41:03.974Z,42.83
2022-07-25T10:42:04.006Z,42.08
2022-07-25T10:43:04.025Z,41.61
2022-07-25T10:44:04.435Z,40.75
2022-07-25T10:45:04.101Z,39.78
2022-07-25T10:46:04.148Z,38.52
2022-07-25T10:47:04.126Z,39.08
2022-07-25T10:48:04.473Z,39.39
2022-07-25T10:49:04.700Z,38.81
2022-07-25T10:50:21.886Z,37.92
2022-07-25T10:51:04.307Z,38.11
2022-07-25T10:52:04.258Z,38.11
2022-07-25T10:53:04.375Z,37.99
2022-07-25T10:54:04.302Z,37.80
2022-07-25T10:55:04.341Z,38.79
2022-07-25T10:56:06.526Z,37.22
2022-07-25T10:57:04.396Z,38.27
2022-07-25T10:58:17.275Z,38.06
2022-07-25T10:59:04.828Z,38.54
2022-07-25T11:00:04.455Z,38.65
2022-07-25T11:01:04.605Z,38.17
2022-07-25T11:02:04.546Z,38.17
2022-07-25T11:03:04.618Z,38.17
2022-07-25T11:04:04.554Z,37.59
2022-07-25T11:05:04.580Z,38.27
2022-07-25T11:06:04.602Z,37.68
2022-07-25T11:07:04.628Z,38.09
2022-07-25T11:08:21.095Z,36.94
2022-07-25T11:09:05.029Z,37.24
2022-07-25T11:10:04.706Z,36.55
2022-07-25T11:11:04.730Z,36.96
2022-07-25T11:12:04.756Z,36.96
2022-07-25T11:13:04.776Z,35.80
2022-07-25T11:14:04.798Z,37.06
2022-07-25T11:15:04.834Z,36.69
2022-07-25T11:16:04.855Z,35.03
2022-07-25T11:17:04.906Z,35.33
2022-07-25T11:18:04.903Z,35.63
2022-07-25T11:19:05.270Z,34.37
2022-07-25T11:20:04.953Z,34.95
2022-07-25T11:21:06.715Z,34.47
2022-07-25T11:22:05.052Z,34.47
2022-07-25T11:23:05.035Z,34.72
2022-07-25T11:24:05.056Z,34.84
2022-07-25T11:25:05.137Z,35.31
2022-07-25T11:26:05.192Z,35.29
2022-07-25T11:27:09.725Z,35.86
2022-07-25T11:28:05.166Z,36.79
2022-07-25T11:29:05.447Z,37.01
2022-07-25T11:30:05.215Z,36.93
2022-07-25T11:31:05.244Z,36.93
2022-07-25T11:32:05.421Z,36.57
2022-07-25T11:33:05.292Z,36.67
2022-07-25T11:34:05.317Z,35.88
2022-07-25T11:35:05.338Z,37.34
2022-07-25T11:36:05.379Z,37.16
2022-07-25T11:37:05.389Z,36.55
2022-07-25T11:38:06.438Z,36.83
2022-07-25T11:39:05.868Z,36.44
2022-07-25T11:40:05.467Z,36.63
2022-07-25T11:41:05.497Z,37.22
2022-07-25T11:42:05.517Z,37.35
2022-07-25T11:43:05.546Z,36.87
2022-07-25T11:44:05.577Z,36.12
2022-07-25T11:45:05.598Z,34.86
2022-07-25T11:46:05.738Z,34.47
2022-07-25T11:47:05.649Z,34.47
2022-07-25T11:48:05.672Z,34.56
2022-07-25T11:49:06.456Z,35.31
2022-07-25T11:50:05.786Z,35.88
2022-07-25T11:51:05.747Z,36.67
2022-07-25T11:52:05.776Z,35.89
2022-07-25T11:53:05.798Z,36.41
2022-07-25T11:54:05.928Z,35.36
2022-07-25T11:55:05.857Z,34.84
2022-07-25T11:56:25.515Z,35.60
2022-07-25T11:57:05.907Z,35.99
2022-07-25T11:58:05.932Z,36.49
2022-07-25T11:59:06.310Z,35.93
2022-07-25T12:00:06.061Z,35.36
2022-07-25T12:01:06.081Z,34.08
2022-07-25T12:02:06.146Z,34.66
2022-07-25T12:03:06.240Z,34.66
2022-07-25T12:04:06.100Z,34.76
2022-07-25T12:05:06.165Z,34.76
2022-07-25T12:06:06.140Z,34.55
2022-07-25T12:07:06.167Z,35.13
2022-07-25T12:08:06.192Z,35.03
2022-07-25T12:09:06.713Z,35.29
2022-07-25T12:10:06.239Z,35.89
2022-07-25T12:11:06.267Z,36.30
2022-07-25T12:12:06.295Z,35.53
2022-07-25T12:13:06.314Z,35.25
2022-07-25T12:14:06.344Z,35.83
2022-07-25T12:15:06.373Z,35.70
2022-07-25T12:16:06.394Z,36.16
2022-07-25T12:17:06.465Z,36.67
2022-07-25T12:18:06.447Z,36.57
2022-07-25T12:19:06.848Z,36.57
2022-07-25T12:20:10.835Z,36.94
2022-07-25T12:21:06.533Z,37.16
2022-07-25T12:22:06.555Z,36.94
2022-07-25T12:23:06.676Z,37.04
2022-07-25T12:24:06.612Z,36.96
2022-07-25T12:25:06.634Z,37.14
2022-07-25T12:26:06.666Z,37.08
2022-07-25T12:27:06.685Z,36.69
2022-07-25T12:28:06.704Z,36.59
2022-07-25T12:29:07.067Z,36.28
2022-07-25T12:30:06.764Z,37.14
2022-07-25T12:31:06.835Z,37.12
2022-07-25T12:32:06.814Z,37.74
2022-07-25T12:33:06.859Z,36.96
2022-07-25T12:34:06.863Z,36.49
2022-07-25T12:35:06.889Z,36.59
2022-07-25T12:36:08.708Z,36.98
2022-07-25T12:37:06.942Z,36.63
2022-07-25T12:38:06.972Z,36.16
2022-07-25T12:39:07.471Z,35.08
2022-07-25T12:40:07.018Z,35.47
2022-07-25T12:41:07.046Z,35.39
2022-07-25T12:42:07.072Z,34.53
2022-07-25T12:43:07.124Z,33.07
2022-07-25T12:44:07.125Z,33.14
2022-07-25T12:45:07.155Z,34.61
2022-07-25T12:46:07.250Z,34.50
2022-07-25T12:47:07.207Z,35.46
2022-07-25T12:48:07.242Z,34.76
2022-07-25T12:49:07.621Z,35.75
2022-07-25T12:50:07.282Z,33.72
2022-07-25T12:51:07.311Z,33.14
2022-07-25T12:52:07.402Z,33.44
2022-07-25T12:53:07.365Z,32.96